Time;durP1;ratioP1;P1;durP2;ratioP2;P2;SDS_P1;SDS_P2;PMS_P1;PMS_P2;Temp;Humidity;BMP_temperature;BMP_pressure;BME280_temperature;BME280_humidity;BME280_pressure;Samples;Min_cycle;Max_cycle;Signal;HPM_P1;HPM_P2
2021/10/04 00:02:19;;;;;;;25.35;20.20;;;;;;;11.08;79.21;101160.93;1673640;84;21062;-84
2021/10/04 00:04:46;;;;;;;26.17;20.40;;;;;;;11.11;79.17;101151.78;1622743;87;21041;-83
2021/10/04 00:07:12;;;;;;;29.12;18.67;;;;;;;11.14;79.26;101154.52;1654527;85;21261;-82
2021/10/04 00:09:39;;;;;;;26.37;19.82;;;;;;;11.21;79.35;101159.55;1640682;87;21251;-82
2021/10/04 00:12:08;;;;;;;27.98;18.77;;;;;;;11.26;79.32;101159.23;1673538;85;21078;-83
2021/10/04 00:14:35;;;;;;;26.10;19.62;;;;;;;11.29;79.30;101157.58;1673871;85;21070;-82
2021/10/04 00:17:05;;;;;;;22.87;17.75;;;;;;;11.32;79.30;101156.80;1673667;84;21588;-82
2021/10/04 00:19:32;;;;;;;30.57;19.37;;;;;;;11.37;79.28;101157.80;1640745;86;21064;-82
2021/10/04 00:21:58;;;;;;;27.20;19.27;;;;;;;11.38;79.26;101159.59;1673812;85;21897;-82
2021/10/04 00:24:25;;;;;;;28.05;19.23;;;;;;;11.40;79.28;101166.23;1640725;87;21121;-80
2021/10/04 00:26:52;;;;;;;26.12;17.87;;;;;;;11.40;79.28;101168.44;1673520;85;21433;-81
2021/10/04 00:29:19;;;;;;;22.25;17.10;;;;;;;11.42;79.28;101169.80;1640841;87;22314;-81
2021/10/04 00:31:47;;;;;;;20.95;16.80;;;;;;;11.44;79.27;101172.06;1674076;84;21074;-80
2021/10/04 00:34:14;;;;;;;22.45;17.00;;;;;;;11.43;79.26;101171.17;1640819;87;21785;-80
2021/10/04 00:36:41;;;;;;;25.92;16.95;;;;;;;11.44;79.26;101175.58;1673649;84;21114;-81
2021/10/04 00:39:08;;;;;;;23.02;17.23;;;;;;;11.43;79.22;101167.22;1640802;87;21083;-80
2021/10/04 00:41:35;;;;;;;26.75;16.90;;;;;;;11.44;79.27;101163.72;1673984;84;21384;-81
2021/10/04 00:44:01;;;;;;;25.25;15.45;;;;;;;11.45;79.28;101173.42;1641041;87;21087;-80
2021/10/04 00:46:28;;;;;;;19.32;16.07;;;;;;;11.45;79.35;101165.52;1640787;85;22581;-80
2021/10/04 00:48:55;;;;;;;21.30;15.98;;;;;;;11.46;79.35;101165.97;1631523;87;21066;-81
2021/10/04 00:51:22;;;;;;;17.92;15.78;;;;;;;11.49;79.38;101167.81;1643149;86;21086;-80
2021/10/04 00:53:57;;;;;;;21.27;17.32;;;;;;;11.50;79.39;101173.97;1673595;85;21063;-85
2021/10/04 00:56:24;;;;;;;19.00;16.37;;;;;;;11.52;79.44;101170.95;1641153;86;21076;-86
2021/10/04 00:58:55;;;;;;;21.12;16.73;;;;;;;11.55;79.49;101177.20;1673952;85;21828;-91
2021/10/04 01:01:28;;;;;;;23.15;15.20;;;;;;;11.58;79.44;101172.43;1640889;86;21562;-80
2021/10/04 01:03:51;;;;;;;21.50;16.10;;;;;;;11.60;79.48;101170.33;1672984;85;21086;-81
2021/10/04 01:06:17;;;;;;;19.57;15.50;;;;;;;11.64;79.53;101167.35;1641012;86;21043;-81
2021/10/04 01:08:44;;;;;;;19.00;15.25;;;;;;;11.67;79.46;101177.56;1674195;85;21117;-80
2021/10/04 01:11:11;;;;;;;18.20;14.98;;;;;;;11.71;79.41;101182.89;1641092;86;22510;-80
2021/10/04 01:13:38;;;;;;;18.90;15.23;;;;;;;11.71;79.42;101181.14;1674015;85;21103;-80
2021/10/04 01:16:05;;;;;;;20.77;15.48;;;;;;;11.72;79.42;101175.03;1640858;87;21055;-81
2021/10/04 01:18:32;;;;;;;21.02;15.88;;;;;;;11.73;79.41;101181.19;1673910;85;21109;-81
2021/10/04 01:20:58;;;;;;;19.37;15.98;;;;;;;11.73;79.40;101174.20;1640993;86;21079;-80
2021/10/04 01:23:28;;;;;;;20.57;16.80;;;;;;;11.75;79.36;101174.20;1673902;85;21785;-80
2021/10/04 01:25:58;;;;;;;16.87;14.15;;;;;;;11.75;79.30;101179.08;1643534;86;20996;-80
2021/10/04 01:28:26;;;;;;;17.07;15.08;;;;;;;11.76;79.34;101178.64;1641093;85;21076;-80
2021/10/04 01:30:55;;;;;;;21.62;14.83;;;;;;;11.77;79.32;101180.02;1594315;87;21104;-80
2021/10/04 01:33:22;;;;;;;19.25;15.50;;;;;;;11.79;79.40;101185.34;1674106;85;21054;-80
2021/10/04 01:35:48;;;;;;;19.77;15.55;;;;;;;11.79;79.41;101180.95;1665127;84;22512;-80
2021/10/04 01:38:15;;;;;;;20.65;14.53;;;;;;;11.81;79.39;101181.88;1666832;86;21512;-80
2021/10/04 01:40:43;;;;;;;18.62;15.10;;;;;;;11.85;79.43;101184.17;1681337;84;21072;-80
2021/10/04 01:43:12;;;;;;;20.20;15.63;;;;;;;11.87;79.49;101182.47;1684187;83;21105;-80
2021/10/04 01:45:39;;;;;;;17.98;15.65;;;;;;;11.90;79.46;101181.27;1713384;82;21101;-80
2021/10/04 01:48:06;;;;;;;21.07;15.10;;;;;;;11.90;79.33;101190.50;1713255;83;21775;-80
2021/10/04 01:50:34;;;;;;;22.80;16.27;;;;;;;11.90;79.30;101185.23;1678981;84;21065;-81
2021/10/04 01:53:04;;;;;;;20.10;16.55;;;;;;;11.92;79.34;101186.16;1679013;85;21111;-81
2021/10/04 01:55:30;;;;;;;19.62;14.90;;;;;;;11.93;79.28;101177.38;1666505;85;21121;-81
2021/10/04 01:57:57;;;;;;;17.73;14.75;;;;;;;11.93;79.20;101183.97;1657652;84;21142;-82
2021/10/04 02:00:24;;;;;;;22.30;16.10;;;;;;;11.92;79.08;101183.92;1646449;86;21785;-81
2021/10/04 02:02:54;;;;;;;17.62;15.40;;;;;;;11.88;79.02;101181.63;1627927;87;21157;-81
2021/10/04 02:05:21;;;;;;;20.50;15.58;;;;;;;11.85;78.96;101189.02;1646108;86;21027;-82
2021/10/04 02:07:49;;;;;;;20.77;15.95;;;;;;;11.81;78.85;101198.13;1657345;86;21207;-82
2021/10/04 02:10:19;;;;;;;28.90;15.93;;;;;;;11.76;78.80;101205.02;1645135;87;21571;-82
2021/10/04 02:12:46;;;;;;;22.25;16.27;;;;;;;11.70;78.80;101203.54;1657571;86;21790;-82
2021/10/04 02:15:14;;;;;;;17.40;15.60;;;;;;;11.62;78.79;101202.02;1657367;85;21150;-81
2021/10/04 02:17:41;;;;;;;20.43;16.73;;;;;;;11.54;78.83;101204.41;1690892;84;21131;-80
2021/10/04 02:20:11;;;;;;;19.65;15.28;;;;;;;11.47;78.77;101209.95;1690925;84;21069;-82
2021/10/04 02:22:41;;;;;;;20.52;15.98;;;;;;;11.41;78.84;101203.59;1690710;83;21566;-81
2021/10/04 02:25:10;;;;;;;17.02;14.63;;;;;;;11.34;78.83;101202.97;1691010;83;21780;-82
2021/10/04 02:27:37;;;;;;;22.82;15.83;;;;;;;11.29;78.91;101204.14;1690859;83;21088;-82
2021/10/04 02:30:08;;;;;;;20.48;15.38;;;;;;;11.22;78.90;101198.21;1691030;84;21684;-83
2021/10/04 02:32:35;;;;;;;20.92;15.38;;;;;;;11.16;78.90;101192.77;1690879;83;21107;-80
2021/10/04 02:35:02;;;;;;;19.85;15.63;;;;;;;11.12;79.02;101190.90;1691002;83;21547;-81
2021/10/04 02:37:29;;;;;;;19.15;16.15;;;;;;;11.06;79.11;101189.86;1690944;83;21759;-81
2021/10/04 02:39:56;;;;;;;25.95;17.80;;;;;;;11.06;79.28;101187.22;1690764;84;21506;-80
2021/10/04 02:42:22;;;;;;;25.97;17.80;;;;;;;11.06;79.49;101189.86;1690649;84;21627;-81
2021/10/04 02:44:49;;;;;;;23.65;16.80;;;;;;;11.06;79.47;101180.64;1690598;83;21096;-81
2021/10/04 02:47:19;;;;;;;22.98;17.42;;;;;;;11.05;79.51;101183.22;1690536;84;21005;-81
2021/10/04 02:49:45;;;;;;;24.05;17.80;;;;;;;10.99;79.40;101197.53;1690945;84;21766;-82
2021/10/04 02:52:16;;;;;;;22.52;17.17;;;;;;;10.90;79.37;101194.18;1690882;83;21057;-82
2021/10/04 02:54:41;;;;;;;25.75;17.65;;;;;;;10.84;79.43;101190.94;1690936;84;21088;-81
2021/10/04 02:57:08;;;;;;;23.02;16.95;;;;;;;10.79;79.43;101189.92;1691041;83;22297;-82
2021/10/04 02:59:35;;;;;;;25.88;17.70;;;;;;;10.74;79.49;101193.27;1684509;84;21093;-82
2021/10/04 03:02:02;;;;;;;21.07;17.32;;;;;;;10.67;79.50;101187.78;1684490;84;21851;-83
2021/10/04 03:04:29;;;;;;;27.02;17.48;;;;;;;10.63;79.67;101185.02;1721429;83;21315;-82
2021/10/04 03:06:56;;;;;;;26.90;18.02;;;;;;;10.60;79.87;101179.64;1684208;84;21019;-82
2021/10/04 03:09:26;;;;;;;27.00;17.23;;;;;;;10.57;79.97;101181.77;1684289;84;21509;-82
2021/10/04 03:11:53;;;;;;;21.37;16.82;;;;;;;10.55;79.98;101189.13;1664812;85;21073;-82
2021/10/04 03:14:20;;;;;;;20.90;17.20;;;;;;;10.52;80.13;101191.25;1684479;84;22559;-81
2021/10/04 03:16:46;;;;;;;20.57;17.60;;;;;;;10.53;80.30;101190.81;1684276;85;21049;-80
2021/10/04 03:19:13;;;;;;;23.27;17.02;;;;;;;10.54;80.25;101197.88;1684327;85;21040;-81
2021/10/04 03:21:40;;;;;;;20.37;17.70;;;;;;;10.52;80.23;101200.89;1684214;85;21134;-80
2021/10/04 03:24:10;;;;;;;21.87;18.57;;;;;;;10.52;80.30;101210.10;1664577;86;21705;-80
2021/10/04 03:26:36;;;;;;;25.27;17.82;;;;;;;10.50;80.29;101216.63;1658962;85;21759;-80
2021/10/04 03:29:03;;;;;;;25.55;17.42;;;;;;;10.46;80.24;101226.16;1684427;85;21057;-80
2021/10/04 03:31:29;;;;;;;24.77;18.10;;;;;;;10.43;80.30;101222.52;1721534;82;21097;-80
2021/10/04 03:33:56;;;;;;;21.90;16.85;;;;;;;10.40;80.35;101225.05;1721583;82;21093;-81
2021/10/04 03:36:23;;;;;;;19.80;16.23;;;;;;;10.37;80.35;101223.22;1721683;82;21046;-81
2021/10/04 03:38:53;;;;;;;21.68;18.27;;;;;;;10.33;80.38;101220.02;1721559;82;21794;-80
2021/10/04 03:41:20;;;;;;;25.60;18.77;;;;;;;10.29;80.36;101224.24;1721446;82;21116;-81
2021/10/04 03:43:47;;;;;;;31.02;17.27;;;;;;;10.26;80.46;101233.77;1721398;82;21065;-80
2021/10/04 03:46:14;;;;;;;24.35;18.27;;;;;;;10.22;80.53;101232.77;1702556;83;21105;-80
2021/10/04 03:48:40;;;;;;;22.22;17.40;;;;;;;10.20;80.59;101226.56;1646090;86;21668;-80
2021/10/04 03:51:07;;;;;;;22.73;17.40;;;;;;;10.16;80.54;101233.87;1681532;85;21751;-80
2021/10/04 03:53:34;;;;;;;24.65;17.87;;;;;;;10.13;80.53;101235.08;1646007;86;21083;-81
2021/10/04 03:56:01;;;;;;;24.87;17.50;;;;;;;10.09;80.60;101238.02;1681663;85;21089;-82
2021/10/04 03:58:27;;;;;;;18.92;16.80;;;;;;;10.07;80.65;101233.56;1646928;86;21638;-80
2021/10/04 04:00:54;;;;;;;19.90;17.50;;;;;;;10.05;80.73;101243.13;1660018;85;21125;-80
2021/10/04 04:03:21;;;;;;;21.33;17.10;;;;;;;10.00;80.76;101241.64;1656887;84;21929;-82
2021/10/04 04:05:48;;;;;;;20.97;16.65;;;;;;;9.97;80.77;101241.55;1656692;85;21126;-81
2021/10/04 04:08:17;;;;;;;23.00;16.95;;;;;;;9.92;80.75;101236.11;1656481;85;21516;-82
2021/10/04 04:10:46;;;;;;;24.67;17.82;;;;;;;9.90;80.81;101247.00;1656199;85;21098;-81
2021/10/04 04:13:17;;;;;;;23.65;17.85;;;;;;;9.89;80.88;101246.55;1655882;85;21062;-80
2021/10/04 04:15:44;;;;;;;24.50;18.02;;;;;;;9.87;80.91;101250.86;1656480;86;22602;-81
2021/10/04 04:18:13;;;;;;;23.60;17.92;;;;;;;9.84;80.92;101253.37;1656144;85;21692;-79
2021/10/04 04:20:40;;;;;;;28.75;19.70;;;;;;;9.85;81.08;101260.83;1656443;85;21066;-80
2021/10/04 04:23:07;;;;;;;24.15;19.00;;;;;;;9.82;81.03;101257.67;1656292;85;21114;-80
2021/10/04 04:25:34;;;;;;;24.55;19.20;;;;;;;9.80;81.06;101258.05;1656451;85;21063;-80
2021/10/04 04:28:01;;;;;;;26.75;17.90;;;;;;;9.81;81.18;101255.88;1656584;85;22965;-80
2021/10/04 04:30:28;;;;;;;25.97;17.85;;;;;;;9.80;81.16;101251.87;1656401;85;21086;-79
2021/10/04 04:32:57;;;;;;;22.80;17.77;;;;;;;9.79;81.17;101258.87;1656545;85;21058;-80
2021/10/04 04:35:23;;;;;;;20.85;15.83;;;;;;;9.80;81.20;101255.81;1628871;88;21096;-82
2021/10/04 04:37:50;;;;;;;22.52;16.35;;;;;;;9.79;81.27;101257.55;1656656;85;21086;-81
2021/10/04 04:40:18;;;;;;;24.80;17.07;;;;;;;9.81;81.34;101252.36;1682543;84;21742;-79
2021/10/04 04:42:45;;;;;;;21.60;16.75;;;;;;;9.81;81.32;101247.98;1695891;83;21107;-83
2021/10/04 04:45:17;;;;;;;22.27;17.75;;;;;;;9.83;81.31;101248.05;1695987;83;21076;-77
2021/10/04 04:47:45;;;;;;;23.73;18.67;;;;;;;9.85;81.31;101249.91;1695937;83;21148;-77
2021/10/04 04:50:12;;;;;;;23.95;17.35;;;;;;;9.86;81.34;101247.73;1690950;83;21076;-78
2021/10/04 04:52:39;;;;;;;19.80;16.62;;;;;;;9.88;81.35;101247.80;1695896;83;21760;-81
2021/10/04 04:55:12;;;;;;;20.52;16.77;;;;;;;9.91;81.47;101258.44;1695482;83;21648;-80
2021/10/04 04:57:44;;;;;;;20.80;17.40;;;;;;;9.94;81.57;101257.21;1666898;84;21295;-82
2021/10/04 05:00:13;;;;;;;20.95;17.77;;;;;;;10.00;81.58;101259.16;1690580;83;21128;-75
2021/10/04 05:02:52;;;;;;;26.87;19.05;;;;;;;10.04;81.59;101262.38;1691402;83;21085;-91
2021/10/04 05:06:00;;;;;;;25.25;19.55;;;;;;;10.09;81.64;101266.06;1623614;88;22766;-89
2021/10/04 05:08:29;;;;;;;27.95;19.60;;;;;;;10.13;81.63;101267.95;1569703;90;21118;-80
2021/10/04 05:10:56;;;;;;;25.90;19.67;;;;;;;10.16;81.59;101271.14;1569584;89;21202;-80
2021/10/04 05:13:23;;;;;;;26.80;19.12;;;;;;;10.21;81.71;101278.75;1569886;90;21650;-80
2021/10/04 05:15:54;;;;;;;35.98;20.27;;;;;;;10.26;81.71;101277.18;1570033;89;21126;-91
2021/10/04 05:18:21;;;;;;;27.70;18.90;;;;;;;10.31;81.88;101281.80;1569681;90;22829;-80
2021/10/04 05:20:47;;;;;;;23.92;18.62;;;;;;;10.38;81.90;101284.23;1569967;90;21141;-80
2021/10/04 05:23:14;;;;;;;22.37;18.10;;;;;;;10.44;81.86;101279.59;1570169;89;21612;-81
2021/10/04 05:25:41;;;;;;;23.65;18.17;;;;;;;10.49;81.73;101280.63;1569964;89;21129;-81
2021/10/04 05:28:07;;;;;;;26.85;18.37;;;;;;;10.53;81.67;101277.28;1570045;90;21165;-81
2021/10/04 05:30:34;;;;;;;27.45;19.82;;;;;;;10.58;81.71;101287.52;1569890;91;22609;-81
2021/10/04 05:33:01;;;;;;;30.02;19.10;;;;;;;10.67;81.72;101290.89;1570012;89;21161;-83
2021/10/04 05:35:28;;;;;;;26.77;18.62;;;;;;;10.75;81.75;101287.19;1571494;90;21151;-83
2021/10/04 05:37:55;;;;;;;24.30;17.32;;;;;;;10.84;81.74;101290.13;1578304;90;21080;-82
2021/10/04 05:40:21;;;;;;;27.00;18.27;;;;;;;10.91;81.64;101292.12;1578379;90;21138;-83
2021/10/04 05:42:48;;;;;;;31.90;17.75;;;;;;;10.96;81.54;101286.98;1578298;90;21792;-83
2021/10/04 05:45:19;;;;;;;28.20;18.50;;;;;;;11.00;81.42;101289.78;1632523;84;21076;-83
2021/10/04 05:47:44;;;;;;;29.42;18.23;;;;;;;11.04;81.37;101296.05;1691147;83;21082;-81
2021/10/04 05:50:11;;;;;;;25.65;18.27;;;;;;;11.11;81.41;101301.95;1691090;84;21152;-78
2021/10/04 05:52:38;;;;;;;21.42;17.92;;;;;;;11.13;81.22;101305.56;1690877;83;21057;-79
2021/10/04 05:55:06;;;;;;;23.18;17.12;;;;;;;11.18;81.30;101296.03;1690703;84;22567;-78
2021/10/04 05:57:33;;;;;;;25.10;17.55;;;;;;;11.23;81.18;101297.52;1690654;84;21068;-78
2021/10/04 06:00:00;;;;;;;23.77;18.20;;;;;;;11.26;81.10;101291.91;1688733;82;21037;-79
2021/10/04 06:02:26;;;;;;;26.52;18.52;;;;;;;11.29;81.01;101297.26;1688652;83;21516;-79
2021/10/04 06:04:53;;;;;;;26.07;18.42;;;;;;;11.35;80.99;101312.80;1688769;84;21060;-79
2021/10/04 06:07:20;;;;;;;24.02;18.42;;;;;;;11.38;80.94;101308.95;1688504;83;21758;-79
2021/10/04 06:09:47;;;;;;;29.40;18.50;;;;;;;11.45;81.01;101315.77;1688333;83;21057;-79
2021/10/04 06:12:14;;;;;;;29.70;19.02;;;;;;;11.50;80.88;101316.33;1688288;83;21711;-79
2021/10/04 06:14:40;;;;;;;23.00;17.77;;;;;;;11.57;80.92;101317.88;1688331;84;21009;-79
2021/10/04 06:17:07;;;;;;;22.55;16.93;;;;;;;11.67;80.91;101317.72;1688572;83;21654;-82
2021/10/04 06:19:34;;;;;;;25.27;19.15;;;;;;;11.76;80.93;101315.36;1688551;83;21807;-78
2021/10/04 06:22:16;;;;;;;22.75;17.48;;;;;;;11.86;80.87;101313.88;1688628;83;21045;-91
2021/10/04 06:24:43;;;;;;;31.57;19.60;;;;;;;11.95;80.71;101309.33;1688482;83;21606;-78
2021/10/04 06:27:10;;;;;;;27.62;19.65;;;;;;;12.00;80.56;101314.32;1688149;83;21266;-78
2021/10/04 06:29:37;;;;;;;30.92;18.80;;;;;;;12.07;80.56;101313.64;1688437;83;21073;-78
2021/10/04 06:32:10;;;;;;;26.10;19.17;;;;;;;12.16;80.47;101319.18;1675988;84;21786;-79
2021/10/04 06:34:35;;;;;;;27.00;19.02;;;;;;;12.23;80.42;101318.91;1675508;84;21089;-79
2021/10/04 06:37:01;;;;;;;25.95;18.60;;;;;;;12.32;80.28;101317.84;1675952;84;21168;-79
2021/10/04 06:39:28;;;;;;;29.90;19.80;;;;;;;12.38;80.16;101317.99;1676074;84;21050;-79
2021/10/04 06:41:58;;;;;;;29.57;19.45;;;;;;;12.45;80.02;101322.59;1676798;85;21621;-91
2021/10/04 06:44:25;;;;;;;26.82;19.25;;;;;;;12.55;80.06;101328.11;1647264;86;21785;-79
2021/10/04 06:46:52;;;;;;;33.40;20.95;;;;;;;12.64;80.05;101323.95;1675980;85;21050;-78
2021/10/04 06:49:19;;;;;;;23.18;19.32;;;;;;;12.76;80.01;101330.00;1647239;86;21102;-79
2021/10/04 06:51:45;;;;;;;33.50;20.82;;;;;;;12.86;79.78;101340.37;1675761;85;21095;-78
2021/10/04 06:54:12;;;;;;;38.92;26.20;;;;;;;12.96;79.66;101344.12;1646966;85;21161;-79
2021/10/04 06:56:39;;;;;;;34.65;21.57;;;;;;;13.07;79.57;101345.28;1675820;84;21751;-79
2021/10/04 06:59:06;;;;;;;32.35;22.05;;;;;;;13.19;79.75;101341.63;1646636;85;21656;-79
2021/10/04 07:01:35;;;;;;;29.77;21.82;;;;;;;13.37;79.59;101346.91;1675637;85;21576;-79
2021/10/04 07:04:04;;;;;;;53.90;38.92;;;;;;;13.49;79.29;101354.22;1646879;85;21047;-79
2021/10/04 07:06:31;;;;;;;43.08;29.67;;;;;;;13.60;79.28;101354.91;1676017;84;21046;-79
2021/10/04 07:08:58;;;;;;;36.98;27.40;;;;;;;13.74;79.06;101351.27;1646650;86;22280;-79
2021/10/04 07:11:24;;;;;;;33.85;23.90;;;;;;;13.91;78.95;101356.03;1675098;84;21651;-79
2021/10/04 07:13:51;;;;;;;30.75;22.10;;;;;;;14.08;78.96;101363.00;1647277;85;21090;-79
2021/10/04 07:16:18;;;;;;;28.52;21.23;;;;;;;14.29;78.89;101366.06;1676026;84;21114;-79
2021/10/04 07:18:47;;;;;;;46.08;22.87;;;;;;;14.50;78.52;101361.59;1647291;85;21149;-79
2021/10/04 07:21:13;;;;;;;26.75;18.07;;;;;;;14.69;78.25;101365.95;1675984;84;22413;-79
2021/10/04 07:23:40;;;;;;;23.70;18.17;;;;;;;14.87;78.02;101372.91;1647109;85;21145;-79
2021/10/04 07:26:06;;;;;;;20.88;16.97;;;;;;;15.09;77.85;101379.87;1675984;84;21049;-79
2021/10/04 07:28:33;;;;;;;23.22;16.27;;;;;;;15.31;77.71;101368.75;1647181;85;21043;-79
2021/10/04 07:31:00;;;;;;;25.02;16.55;;;;;;;15.50;77.14;101365.05;1675979;84;21556;-79
2021/10/04 07:33:27;;;;;;;21.60;16.50;;;;;;;15.59;76.59;101371.81;1647017;85;21747;-79
2021/10/04 07:35:55;;;;;;;20.75;15.80;;;;;;;15.67;76.02;101369.27;1675962;84;21109;-79
2021/10/04 07:38:23;;;;;;;22.62;16.52;;;;;;;15.68;75.86;101365.76;1628444;87;21051;-79
2021/10/04 07:40:49;;;;;;;21.35;17.10;;;;;;;15.78;75.70;101363.70;1675773;84;21164;-79
2021/10/04 07:43:18;;;;;;;22.50;17.90;;;;;;;15.80;75.47;101366.38;1626959;87;21636;-79
2021/10/04 07:45:44;;;;;;;22.85;18.57;;;;;;;15.84;75.24;101368.20;1675826;84;21762;-79
2021/10/04 07:48:12;;;;;;;22.58;18.23;;;;;;;15.85;75.00;101370.00;1646970;85;21087;-79
2021/10/04 07:50:39;;;;;;;25.02;17.87;;;;;;;15.91;74.94;101374.05;1675901;84;21073;-79
2021/10/04 07:53:05;;;;;;;25.92;18.90;;;;;;;16.01;74.94;101379.04;1646856;86;21558;-79
2021/10/04 07:55:32;;;;;;;20.60;15.83;;;;;;;16.12;74.83;101382.31;1675947;84;21547;-79
2021/10/04 07:57:59;;;;;;;20.00;15.75;;;;;;;16.17;74.59;101365.08;1646909;86;21781;-79
2021/10/04 08:00:25;;;;;;;19.12;15.93;;;;;;;16.27;74.21;101375.38;1675444;83;21104;-79
2021/10/04 08:02:52;;;;;;;17.70;15.03;;;;;;;16.31;74.08;101379.43;1656614;86;21116;-79
2021/10/04 08:05:19;;;;;;;21.55;16.17;;;;;;;16.39;73.99;101391.47;1628602;86;21693;-79
2021/10/04 08:07:46;;;;;;;20.57;14.98;;;;;;;16.51;73.74;101392.91;1628781;86;21099;-79
2021/10/04 08:10:12;;;;;;;20.23;15.45;;;;;;;16.55;73.57;101383.66;1628686;86;21813;-79
2021/10/04 08:12:39;;;;;;;17.55;14.98;;;;;;;16.68;73.58;101381.58;1656002;85;21652;-79
2021/10/04 08:15:06;;;;;;;22.52;14.70;;;;;;;16.78;73.37;101381.22;1675783;84;21073;-80
2021/10/04 08:17:33;;;;;;;16.97;14.23;;;;;;;16.90;73.19;101382.72;1675902;84;21681;-80
2021/10/04 08:20:00;;;;;;;17.27;15.40;;;;;;;17.01;73.04;101379.71;1647009;85;21082;-80
2021/10/04 08:22:30;;;;;;;21.15;15.70;;;;;;;17.13;72.92;101384.68;1675909;84;21741;-80
2021/10/04 08:24:56;;;;;;;17.20;15.28;;;;;;;17.21;72.49;101387.87;1647033;86;22458;-79
2021/10/04 08:27:23;;;;;;;21.23;16.45;;;;;;;17.24;72.36;101381.66;1676045;84;21038;-79
2021/10/04 08:29:50;;;;;;;22.00;14.65;;;;;;;17.29;72.17;101383.48;1647134;85;21175;-79
2021/10/04 08:32:16;;;;;;;20.95;15.08;;;;;;;17.29;71.92;101376.83;1676232;85;21107;-80
2021/10/04 08:34:43;;;;;;;20.65;14.55;;;;;;;17.32;71.85;101382.60;1647159;86;21753;-79
2021/10/04 08:37:09;;;;;;;18.48;13.98;;;;;;;17.32;71.69;101367.97;1675751;84;21089;-79
2021/10/04 08:39:36;;;;;;;20.75;15.40;;;;;;;17.36;71.53;101367.55;1647208;86;21583;-81
2021/10/04 08:42:03;;;;;;;17.85;15.65;;;;;;;17.35;71.48;101360.47;1675997;84;21314;-80
2021/10/04 08:44:32;;;;;;;18.17;15.63;;;;;;;17.36;71.30;101356.48;1627239;87;21086;-79
2021/10/04 08:46:58;;;;;;;21.05;15.55;;;;;;;17.35;71.19;101359.13;1676091;85;21747;-79
2021/10/04 08:49:33;;;;;;;16.65;14.83;;;;;;;17.35;71.04;101358.69;1647218;86;21241;-93
2021/10/04 08:51:59;;;;;;;19.77;16.40;;;;;;;17.36;71.07;101362.23;1676095;85;25301;-79
2021/10/04 08:54:29;;;;;;;21.15;15.85;;;;;;;17.39;71.02;101358.27;1647065;86;22160;-79
2021/10/04 08:56:58;;;;;;;21.97;14.80;;;;;;;17.47;71.03;101363.19;1675993;85;21519;-78
2021/10/04 08:59:26;;;;;;;18.55;15.95;;;;;;;17.58;71.08;101360.60;1646991;85;21793;-80
2021/10/04 09:02:24;;;;;;;17.75;14.85;;;;;;;17.68;70.88;101355.77;1675970;85;21080;-80
2021/10/04 09:05:21;;;;;;;25.10;15.53;;;;;;;17.73;70.57;101345.16;1644450;87;21145;-80
2021/10/04 09:07:51;;;;;;;16.30;14.63;;;;;;;17.87;70.36;101349.70;1644465;87;21374;-80
2021/10/04 09:10:23;;;;;;;20.52;15.28;;;;;;;18.05;70.39;101363.97;1644442;87;21168;-80
2021/10/04 09:12:58;;;;;;;20.68;15.08;;;;;;;18.16;69.93;101368.02;1644604;87;22587;-80
2021/10/04 09:15:38;;;;;;;18.87;15.78;;;;;;;18.31;69.90;101368.06;1622540;87;21119;-80
2021/10/04 09:18:17;;;;;;;18.48;14.53;;;;;;;18.41;69.36;101375.63;1644732;87;21150;-80
2021/10/04 09:21:09;;;;;;;26.00;18.10;;;;;;;18.50;69.40;101377.44;1644555;87;21111;-80
2021/10/04 09:23:47;;;;;;;20.75;15.15;;;;;;;18.63;69.27;101384.58;1644842;87;21127;-80
2021/10/04 09:26:31;;;;;;;17.82;15.40;;;;;;;18.74;69.03;101383.27;1644334;87;21804;-80
2021/10/04 09:29:06;;;;;;;18.55;14.35;;;;;;;18.81;68.68;101388.64;1644125;87;21108;-80
2021/10/04 09:31:39;;;;;;;19.65;14.87;;;;;;;18.90;68.60;101389.53;1644519;87;21278;-79
2021/10/04 09:34:19;;;;;;;20.05;15.05;;;;;;;19.02;68.55;101394.89;1644279;87;21245;-80
2021/10/04 09:36:57;;;;;;;19.17;14.87;;;;;;;19.11;68.06;101391.34;1644204;87;21150;-79
2021/10/04 09:39:37;;;;;;;20.70;15.65;;;;;;;19.16;67.87;101386.45;1672904;84;22846;-80
2021/10/04 09:42:12;;;;;;;18.87;14.55;;;;;;;19.25;67.71;101384.66;1667344;84;21173;-79
2021/10/04 09:44:51;;;;;;;26.40;15.25;;;;;;;19.26;67.41;101380.66;1688338;83;21088;-80
2021/10/04 09:47:38;;;;;;;20.08;15.03;;;;;;;19.24;67.17;101379.77;1675965;84;21085;-80
2021/10/04 09:50:12;;;;;;;18.73;15.10;;;;;;;19.29;67.27;101380.63;1647118;85;21662;-79
2021/10/04 09:52:59;;;;;;;20.48;15.23;;;;;;;19.31;66.78;101365.95;1671283;85;21861;-80
2021/10/04 09:55:38;;;;;;;16.15;14.40;;;;;;;19.33;66.76;101370.84;1675509;84;21081;-79
2021/10/04 09:58:26;;;;;;;20.05;14.55;;;;;;;19.37;66.63;101364.18;1647050;86;21043;-79
2021/10/04 10:00:58;;;;;;;21.62;14.20;;;;;;;19.37;66.33;101352.59;1675720;83;21057;-79
2021/10/04 10:03:41;;;;;;;18.70;14.20;;;;;;;19.36;66.23;101350.38;1647054;85;21354;-80
2021/10/04 10:06:08;;;;;;;21.77;15.28;;;;;;;19.30;66.08;101353.52;1675835;84;22438;-79
2021/10/04 10:08:35;;;;;;;17.15;14.60;;;;;;;19.33;66.20;101354.41;1646991;85;21588;-79
2021/10/04 10:11:05;;;;;;;25.27;15.85;;;;;;;19.34;66.01;101355.28;1676091;85;21069;-80
2021/10/04 10:13:32;;;;;;;17.75;15.10;;;;;;;19.25;65.61;101361.97;1647143;85;21074;-80
2021/10/04 10:16:07;;;;;;;20.72;15.25;;;;;;;19.18;65.56;101359.73;1675980;84;21011;-80
2021/10/04 10:18:44;;;;;;;20.95;17.17;;;;;;;19.11;65.46;101358.87;1647410;86;21794;-79
2021/10/04 10:21:29;;;;;;;22.60;18.07;;;;;;;18.99;65.52;101345.52;1676181;84;21682;-80
2021/10/04 10:24:04;;;;;;;20.30;17.27;;;;;;;19.06;65.56;101349.09;1647267;85;21588;-80
2021/10/04 10:26:58;;;;;;;23.40;17.00;;;;;;;19.05;65.61;101350.88;1675965;84;21003;-78
2021/10/04 10:29:29;;;;;;;21.75;16.82;;;;;;;19.09;65.64;101355.31;1647347;87;22579;-79
2021/10/04 10:32:01;;;;;;;23.25;17.23;;;;;;;19.16;65.61;101353.09;1675992;84;21817;-79
2021/10/04 10:34:40;;;;;;;20.97;16.20;;;;;;;19.15;65.21;101359.30;1647152;85;21592;-80
2021/10/04 10:37:21;;;;;;;19.27;16.48;;;;;;;19.10;65.32;101354.41;1675975;84;21093;-80
2021/10/04 10:40:01;;;;;;;27.80;15.13;;;;;;;19.17;65.40;101368.20;1647130;86;21600;-80
2021/10/04 10:42:32;;;;;;;23.22;15.70;;;;;;;19.27;65.33;101376.20;1656176;85;21596;-81
2021/10/04 10:45:10;;;;;;;19.77;16.37;;;;;;;19.32;65.20;101374.42;1675765;84;21743;-80
2021/10/04 10:47:42;;;;;;;20.52;15.65;;;;;;;19.37;65.06;101369.94;1675950;84;21614;-79
2021/10/04 10:50:19;;;;;;;19.12;15.60;;;;;;;19.43;64.94;101385.98;1646967;87;21122;-80
2021/10/04 10:52:48;;;;;;;19.75;16.25;;;;;;;19.50;64.75;101394.84;1675479;84;21065;-80
2021/10/04 10:55:29;;;;;;;18.60;16.05;;;;;;;19.54;64.61;101393.52;1647275;85;21083;-80
2021/10/04 10:58:05;;;;;;;20.45;15.45;;;;;;;19.61;64.52;101393.95;1676199;84;21763;-81
2021/10/04 11:00:46;;;;;;;16.90;14.83;;;;;;;19.64;64.36;101390.38;1621394;86;21138;-78
2021/10/04 11:03:19;;;;;;;24.25;16.77;;;;;;;19.72;64.49;101393.03;1685410;83;21539;-80
2021/10/04 11:06:07;;;;;;;18.75;16.15;;;;;;;19.76;64.29;101401.50;1686001;83;20999;-81
2021/10/04 11:08:47;;;;;;;20.75;16.42;;;;;;;19.79;64.17;101402.39;1685904;84;22266;-80
2021/10/04 11:11:19;;;;;;;19.32;16.77;;;;;;;19.83;63.95;101409.07;1685767;83;21771;-80
2021/10/04 11:14:10;;;;;;;19.42;16.52;;;;;;;19.87;63.82;101406.83;1685563;83;21057;-80
2021/10/04 11:16:43;;;;;;;22.30;16.12;;;;;;;19.90;63.83;101407.70;1685632;84;21066;-80
2021/10/04 11:19:14;;;;;;;;;;;;;;;19.93;63.58;101414.39;1687900;84;21073;-80
2021/10/04 11:21:44;;;;;;;20.55;16.30;;;;;;;19.91;63.42;101415.27;1678615;85;20212;-80